createdAt,value
2022-09-28T00:01:06.416Z,98252.25
2022-09-28T00:03:34.276Z,98256.41
2022-09-28T00:06:03.644Z,98263.06
2022-09-28T00:08:31.685Z,98249.75
2022-09-28T00:10:59.748Z,98261.41
2022-09-28T00:13:28.176Z,98265.56
2022-09-28T00:16:06.296Z,98273.06
2022-09-28T00:18:34.564Z,98268.88
2022-09-28T00:21:04.701Z,98269.66
2022-09-28T00:23:33.079Z,98261.31
2022-09-28T00:26:03.761Z,98248.78
2022-09-28T00:28:32.066Z,98260.44
2022-09-28T00:31:00.325Z,98258.78
2022-09-28T00:33:30.665Z,98259.59
2022-09-28T00:35:59.080Z,98257.88
2022-09-28T00:38:28.705Z,98262.06
2022-09-28T00:40:56.995Z,98260.38
2022-09-28T00:43:25.506Z,98258.72
2022-09-28T00:45:59.822Z,98257.03
2022-09-28T00:48:33.338Z,98260.38
2022-09-28T00:51:05.098Z,98259.56
2022-09-28T00:53:36.452Z,98267.06
2022-09-28T00:56:07.444Z,98255.38
2022-09-28T00:58:39.991Z,98271.19
2022-09-28T01:01:08.546Z,98265.34
2022-09-28T01:03:41.171Z,98275.34
2022-09-28T01:06:10.397Z,98274.53
2022-09-28T01:08:40.076Z,98277.84
2022-09-28T01:11:08.038Z,98270.31
2022-09-28T01:13:36.464Z,98278.63
2022-09-28T01:16:13.989Z,98282.75
2022-09-28T01:18:55.351Z,98271.88
2022-09-28T01:21:24.905Z,98251.00
2022-09-28T01:24:24.702Z,98267.72
2022-09-28T01:27:07.171Z,98268.53
2022-09-28T01:29:59.892Z,98270.16
2022-09-28T01:32:37.692Z,98275.16
2022-09-28T01:35:09.865Z,98268.50
2022-09-28T01:37:47.283Z,98272.66
2022-09-28T01:40:16.714Z,98278.50
2022-09-28T01:42:49.851Z,98286.81
2022-09-28T01:45:23.636Z,98278.50
2022-09-28T01:47:58.019Z,98280.19
2022-09-28T01:50:29.893Z,98275.16
2022-09-28T01:53:03.961Z,98274.28
2022-09-28T01:55:35.113Z,98270.06
2022-09-28T01:58:12.877Z,98268.34
2022-09-28T02:00:45.982Z,98267.50
2022-09-28T02:03:22.133Z,98260.00
2022-09-28T02:06:00.445Z,98265.81
2022-09-28T02:08:32.680Z,98263.31
2022-09-28T02:11:05.869Z,98269.97
2022-09-28T02:13:38.814Z,98273.28
2022-09-28T02:16:15.101Z,98274.97
2022-09-28T02:18:43.429Z,98283.28
2022-09-28T02:21:18.445Z,98282.44
2022-09-28T02:23:55.633Z,98293.25
2022-09-28T02:26:28.490Z,98286.50
2022-09-28T02:28:58.012Z,98288.16
2022-09-28T02:31:27.033Z,98287.28
2022-09-28T02:33:57.620Z,98290.59
2022-09-28T02:36:27.165Z,98297.25
2022-09-28T02:38:55.796Z,98306.34
2022-09-28T02:41:36.487Z,98299.72
2022-09-28T02:44:14.840Z,98293.06
2022-09-28T02:46:50.930Z,98300.56
2022-09-28T02:49:33.405Z,98299.72
2022-09-28T02:52:33.504Z,98299.63
2022-09-28T02:55:20.984Z,98309.69
2022-09-28T02:58:03.513Z,98318.00
2022-09-28T03:00:38.824Z,98315.47
2022-09-28T03:03:14.864Z,98305.47
2022-09-28T03:05:50.710Z,98307.19
2022-09-28T03:08:24.952Z,98308.88
2022-09-28T03:10:58.086Z,98291.25
2022-09-28T03:13:27.188Z,98320.50
2022-09-28T03:16:11.791Z,98319.69
2022-09-28T03:18:41.197Z,98316.38
2022-09-28T03:21:11.914Z,98316.34
2022-09-28T03:23:39.835Z,98322.94
2022-09-28T03:26:09.061Z,98330.41
2022-09-28T03:28:37.265Z,98323.66
2022-09-28T03:31:06.329Z,98321.09
2022-09-28T03:33:35.615Z,98324.34
2022-09-28T03:36:03.431Z,98330.09
2022-09-28T03:38:32.005Z,98333.34
2022-09-28T03:41:01.392Z,98330.03
2022-09-28T03:43:35.201Z,98330.91
2022-09-28T03:46:04.287Z,98321.00
2022-09-28T03:48:37.843Z,98321.03
2022-09-28T03:51:09.203Z,98319.41
2022-09-28T03:53:37.227Z,98319.41
2022-09-28T03:56:06.704Z,98311.91
2022-09-28T03:58:35.275Z,98304.28
2022-09-28T04:01:05.142Z,98311.72
2022-09-28T04:03:33.089Z,98308.34
2022-09-28T04:06:02.716Z,98303.34
2022-09-28T04:08:30.985Z,98312.59
2022-09-28T04:11:00.107Z,98310.84
2022-09-28T04:13:29.292Z,98310.06
2022-09-28T04:15:58.835Z,98309.25
2022-09-28T04:18:29.133Z,98303.47
2022-09-28T04:21:19.387Z,98287.66
2022-09-28T04:23:53.023Z,98290.94
2022-09-28T04:26:24.278Z,98262.47
2022-09-28T04:29:10.056Z,98269.19
2022-09-28T04:31:43.649Z,98282.44
2022-09-28T04:34:12.563Z,98295.75
2022-09-28T04:36:41.810Z,98296.66
2022-09-28T04:39:09.696Z,98302.56
2022-09-28T04:41:37.553Z,98310.91
2022-09-28T04:44:05.425Z,98314.25
2022-09-28T04:46:33.349Z,98320.06
2022-09-28T04:49:19.486Z,98314.22
2022-09-28T04:51:55.223Z,98316.69
2022-09-28T04:54:23.070Z,98309.22
2022-09-28T04:56:52.537Z,98315.88
2022-09-28T04:59:20.666Z,98310.72
2022-09-28T05:01:49.458Z,98310.50
2022-09-28T05:04:35.892Z,98311.28
2022-09-28T05:07:14.173Z,98308.94
2022-09-28T05:09:41.960Z,98304.91
2022-09-28T05:12:10.296Z,98295.88
2022-09-28T05:14:38.927Z,98317.56
2022-09-28T05:17:06.941Z,98290.06
2022-09-28T05:20:00.666Z,98316.03
2022-09-28T05:22:30.031Z,98312.75
2022-09-28T05:24:59.048Z,98317.00
2022-09-28T05:27:26.871Z,98307.88
2022-09-28T05:30:08.466Z,98300.44
2022-09-28T05:33:05.846Z,98288.75
2022-09-28T05:35:44.244Z,98305.53
2022-09-28T05:38:13.830Z,98306.41
2022-09-28T05:40:41.657Z,98304.88
2022-09-28T05:43:09.522Z,98306.56
2022-09-28T05:45:37.586Z,98298.28
2022-09-28T05:48:05.722Z,98286.63
2022-09-28T05:50:33.632Z,98281.56
2022-09-28T05:53:02.696Z,98279.88
2022-09-28T05:55:32.356Z,98288.91
2022-09-28T05:58:01.021Z,98282.19
2022-09-28T06:00:29.668Z,98288.00
2022-09-28T06:02:59.070Z,98281.34
2022-09-28T06:05:27.345Z,98289.66
2022-09-28T06:07:57.253Z,98288.00
2022-09-28T06:10:25.286Z,98284.66
2022-09-28T06:12:59.856Z,98278.88
2022-09-28T06:15:29.980Z,98263.03
2022-09-28T06:17:59.828Z,98274.81
2022-09-28T06:20:53.633Z,98269.09
2022-09-28T06:23:31.767Z,98262.53
2022-09-28T06:26:00.247Z,98252.63
2022-09-28T06:28:29.540Z,98252.69
2022-09-28T06:30:57.621Z,98251.06
2022-09-28T06:33:26.748Z,98243.63
2022-09-28T06:35:54.636Z,98252.06
2022-09-28T06:38:22.696Z,98249.53
2022-09-28T06:40:50.796Z,98243.78
2022-09-28T06:43:18.904Z,98246.22
2022-09-28T06:46:07.983Z,98246.19
2022-09-28T06:48:51.108Z,98247.00
2022-09-28T06:51:42.096Z,98240.34
2022-09-28T06:54:20.047Z,98237.88
2022-09-28T06:56:58.554Z,98237.88
2022-09-28T06:59:26.445Z,98238.69
2022-09-28T07:01:56.571Z,98233.69
2022-09-28T07:04:43.584Z,98225.38
2022-09-28T07:07:31.261Z,98222.88
2022-09-28T07:10:11.884Z,98235.38
2022-09-28T07:13:02.499Z,98235.38
2022-09-28T07:15:36.428Z,98248.78
2022-09-28T07:18:07.902Z,98249.63
2022-09-28T07:20:48.375Z,98248.00
2022-09-28T07:23:20.168Z,98248.84
2022-09-28T07:26:09.138Z,98249.72
2022-09-28T07:28:55.735Z,98245.53
2022-09-28T07:31:33.712Z,98240.53
2022-09-28T07:34:23.095Z,98258.88
2022-09-28T07:37:14.305Z,98260.56
2022-09-28T07:39:59.831Z,98257.25
2022-09-28T07:42:29.997Z,98243.88
2022-09-28T07:44:58.129Z,98269.75
2022-09-28T07:47:32.281Z,98276.44
2022-09-28T07:50:35.521Z,98267.28
2022-09-28T07:53:16.898Z,98267.31
2022-09-28T07:56:13.987Z,98237.28
2022-09-28T07:58:48.997Z,98257.31
2022-09-28T08:01:42.846Z,98256.47
2022-09-28T08:04:14.279Z,98258.16
2022-09-28T08:06:45.538Z,98262.31
2022-09-28T08:09:14.616Z,98253.97
2022-09-28T08:12:01.675Z,98251.47
2022-09-28T08:14:52.165Z,98252.31
2022-09-28T08:17:33.375Z,98251.47
2022-09-28T08:20:23.864Z,98255.66
2022-09-28T08:22:53.542Z,98247.31
2022-09-28T08:25:21.381Z,98247.28
2022-09-28T08:27:49.661Z,98242.31
2022-09-28T08:30:18.089Z,98242.31
2022-09-28T08:32:52.746Z,98234.78
2022-09-28T08:35:41.812Z,98220.63
2022-09-28T08:38:16.197Z,98229.78
2022-09-28T08:41:17.889Z,98220.59
2022-09-28T08:44:15.520Z,98223.06
2022-09-28T08:47:34.580Z,98218.88
2022-09-28T08:50:22.464Z,98226.38
2022-09-28T08:53:31.309Z,98210.56
2022-09-28T08:56:31.718Z,98227.22
2022-09-28T08:59:03.811Z,98228.84
2022-09-28T09:01:38.397Z,98232.19
2022-09-28T09:04:10.059Z,98230.50
2022-09-28T09:07:18.958Z,98224.66
2022-09-28T09:10:11.593Z,98216.28
2022-09-28T09:12:46.986Z,98223.78
2022-09-28T09:15:28.924Z,98217.91
2022-09-28T09:18:10.544Z,98215.41
2022-09-28T09:20:51.642Z,98210.34
2022-09-28T09:23:38.335Z,98208.63
2022-09-28T09:26:21.639Z,98206.94
2022-09-28T09:29:07.325Z,98213.53
2022-09-28T09:32:03.027Z,98204.25
2022-09-28T09:34:41.395Z,98193.41
2022-09-28T09:37:49.926Z,98182.50
2022-09-28T09:40:51.707Z,98180.78
2022-09-28T09:44:06.760Z,98174.09
2022-09-28T09:46:54.028Z,98175.75
2022-09-28T09:49:37.534Z,98182.44
2022-09-28T09:52:14.604Z,98171.56
2022-09-28T09:54:47.066Z,98168.22
2022-09-28T09:57:35.959Z,98162.28
2022-09-28T10:00:19.094Z,98168.13
2022-09-28T10:03:00.186Z,98177.22
2022-09-28T10:05:39.501Z,98169.59
2022-09-28T10:08:16.496Z,98168.66
2022-09-28T10:10:50.138Z,98169.31
2022-09-28T10:13:20.257Z,98170.69
2022-09-28T10:15:51.561Z,98171.88
2022-09-28T10:18:30.840Z,98168.28
2022-09-28T10:21:19.417Z,98163.00
2022-09-28T10:24:03.207Z,98153.38
2022-09-28T10:26:36.549Z,98158.13
2022-09-28T10:29:15.734Z,98155.31
2022-09-28T10:31:48.248Z,98152.00
2022-09-28T10:34:29.363Z,98144.44
2022-09-28T10:37:03.782Z,98139.19
2022-09-28T10:39:54.148Z,98129.22
2022-09-28T10:42:26.828Z,98137.31
2022-09-28T10:44:57.664Z,98119.81
2022-09-28T10:47:36.577Z,98121.69
2022-09-28T10:50:21.893Z,98111.91
2022-09-28T10:52:52.412Z,98097.06
2022-09-28T10:55:42.774Z,98104.66
2022-09-28T10:58:25.937Z,98108.91
2022-09-28T11:00:59.824Z,98104.75
2022-09-28T11:03:30.807Z,98112.97
2022-09-28T11:06:06.313Z,98097.66
2022-09-28T11:08:39.493Z,98073.78
2022-09-28T11:11:11.910Z,98083.41
2022-09-28T11:13:46.613Z,98062.66
2022-09-28T11:16:30.216Z,98063.81
2022-09-28T11:19:07.301Z,98067.63
2022-09-28T11:21:43.133Z,98051.44
2022-09-28T11:24:21.696Z,98063.78
2022-09-28T11:26:53.562Z,98055.13
2022-09-28T11:29:44.258Z,98060.13
2022-09-28T11:32:44.885Z,98055.03
2022-09-28T11:35:27.134Z,98054.53
2022-09-28T11:38:07.275Z,98051.03
2022-09-28T11:41:06.112Z,98055.16
2022-09-28T11:43:51.713Z,98050.78
2022-09-28T11:46:33.398Z,98047.25
2022-09-28T11:49:16.747Z,98048.91
2022-09-28T11:51:49.729Z,98052.28
2022-09-28T11:54:26.658Z,98044.19
2022-09-28T11:56:54.769Z,98045.34
2022-09-28T11:59:31.666Z,98038.91
2022-09-28T12:02:04.374Z,98037.44
2022-09-28T12:04:45.076Z,98026.38
2022-09-28T12:07:20.264Z,98024.94
2022-09-28T12:09:55.040Z,98016.75
2022-09-28T12:12:26.660Z,98015.25
2022-09-28T12:15:02.016Z,98012.88
2022-09-28T12:17:35.487Z,98017.13
2022-09-28T12:20:11.589Z,98008.56
2022-09-28T12:22:47.102Z,98010.50
2022-09-28T12:25:20.012Z,98002.47
2022-09-28T12:27:52.277Z,97988.81
2022-09-28T12:30:22.067Z,98004.47
2022-09-28T12:32:54.298Z,98001.16
2022-09-28T12:35:32.380Z,97997.91
2022-09-28T12:38:22.701Z,98003.34
2022-09-28T12:40:58.179Z,98000.19
2022-09-28T12:43:36.813Z,98004.50
2022-09-28T12:46:27.534Z,97992.56
2022-09-28T12:52:28.021Z,97994.09
2022-09-28T12:57:57.597Z,98008.44
2022-09-28T13:00:31.904Z,98016.94
2022-09-28T13:03:37.064Z,98005.31
2022-09-28T13:06:18.335Z,98013.00
2022-09-28T13:09:01.132Z,98012.75
2022-09-28T13:11:34.950Z,98009.13
2022-09-28T13:14:34.265Z,98016.91
2022-09-28T13:17:09.570Z,98013.22
2022-09-28T13:19:45.706Z,98014.06
2022-09-28T13:22:29.050Z,98013.56
2022-09-28T13:25:02.894Z,98024.72
2022-09-28T13:27:38.051Z,98002.25
2022-09-28T13:30:07.858Z,98008.78
2022-09-28T13:32:38.902Z,98022.91
2022-09-28T13:35:07.354Z,98027.25
2022-09-28T13:37:35.403Z,98025.75
2022-09-28T13:40:06.152Z,98025.22
2022-09-28T13:42:51.021Z,98022.97
2022-09-28T13:45:45.034Z,98025.72
2022-09-28T13:48:17.206Z,98035.94
2022-09-28T13:51:24.559Z,98034.38
2022-09-28T13:54:11.475Z,98046.25
2022-09-28T13:56:50.108Z,98032.03
2022-09-28T13:59:24.206Z,98036.31
2022-09-28T14:01:57.113Z,98038.88
2022-09-28T14:04:40.025Z,98029.66
2022-09-28T14:07:11.611Z,98036.41
2022-09-28T14:09:49.642Z,98028.03
2022-09-28T14:12:44.148Z,98028.88
2022-09-28T14:15:45.021Z,98020.41
2022-09-28T14:18:26.647Z,98028.00
2022-09-28T14:21:14.676Z,98008.03
2022-09-28T14:24:05.753Z,98030.53
2022-09-28T14:27:16.032Z,98031.41
2022-09-28T14:29:44.541Z,98029.72
2022-09-28T14:32:37.421Z,98037.13
2022-09-28T14:35:08.407Z,98022.13
2022-09-28T14:37:56.065Z,98042.97
2022-09-28T14:40:49.394Z,98048.94
2022-09-28T14:43:29.306Z,98047.38
2022-09-28T14:46:29.687Z,98041.59
2022-09-28T14:49:01.672Z,98045.00
2022-09-28T14:52:06.172Z,98045.91
2022-09-28T14:54:45.250Z,98048.44
2022-09-28T14:57:19.598Z,98038.44
2022-09-28T14:59:48.115Z,98044.34
2022-09-28T15:02:26.144Z,98032.56
2022-09-28T15:04:59.954Z,98035.91
2022-09-28T15:07:32.772Z,98038.44
2022-09-28T15:10:02.041Z,98042.75
2022-09-28T15:12:31.452Z,98045.28
2022-09-28T15:15:02.157Z,98044.38
2022-09-28T15:17:39.217Z,98044.31
2022-09-28T15:20:24.040Z,98045.09
2022-09-28T15:22:56.975Z,98051.69
2022-09-28T15:25:27.079Z,98049.84
2022-09-28T15:27:57.132Z,98043.88
2022-09-28T15:30:28.258Z,98042.13
2022-09-28T15:33:17.670Z,98036.13
2022-09-28T15:35:49.859Z,98038.69
2022-09-28T15:38:18.384Z,98028.03
2022-09-28T15:40:47.692Z,98044.81
2022-09-28T15:43:26.967Z,98039.91
2022-09-28T15:46:05.830Z,98039.22
2022-09-28T15:48:41.668Z,98033.47
2022-09-28T15:51:11.950Z,98042.00
2022-09-28T15:53:44.719Z,98033.84
2022-09-28T15:56:12.951Z,98052.31
2022-09-28T15:58:40.991Z,98060.75
2022-09-28T16:01:35.835Z,98054.13
2022-09-28T16:04:39.323Z,98045.81
2022-09-28T16:07:24.345Z,98051.75
2022-09-28T16:09:57.066Z,98049.31
2022-09-28T16:12:31.390Z,98049.38
2022-09-28T16:15:04.043Z,98051.09
2022-09-28T16:17:34.296Z,98051.16
2022-09-28T16:20:04.762Z,98054.59
2022-09-28T16:22:34.023Z,98053.78
2022-09-28T16:25:02.852Z,98049.59
2022-09-28T16:27:40.188Z,98058.81
2022-09-28T16:30:20.229Z,98067.19
2022-09-28T16:32:54.147Z,98065.50
2022-09-28T16:35:30.881Z,98066.34
2022-09-28T16:38:03.380Z,98069.66
2022-09-28T16:40:33.189Z,98067.97
2022-09-28T16:43:04.998Z,98062.03
2022-09-28T16:45:32.910Z,98048.72
2022-09-28T16:48:01.574Z,98053.66
2022-09-28T16:50:29.501Z,98062.88
2022-09-28T16:53:21.145Z,98063.72
2022-09-28T16:55:50.329Z,98068.75
2022-09-28T16:58:18.587Z,98057.00
2022-09-28T17:00:46.373Z,98056.19
2022-09-28T17:03:16.140Z,98057.88
2022-09-28T17:05:44.260Z,98064.56
2022-09-28T17:08:17.392Z,98061.22
2022-09-28T17:11:13.094Z,98055.34
2022-09-28T17:13:38.799Z,98056.19
2022-09-28T17:16:11.336Z,98058.75
2022-09-28T17:18:40.025Z,98061.22
2022-09-28T17:21:12.243Z,98057.91
2022-09-28T17:23:41.400Z,98058.69
2022-09-28T17:26:16.848Z,98053.72
2022-09-28T17:28:44.749Z,98049.53
2022-09-28T17:31:15.703Z,98051.16
2022-09-28T17:33:43.973Z,98057.81
2022-09-28T17:36:15.919Z,98064.47
2022-09-28T17:38:46.707Z,98056.91
2022-09-28T17:41:20.192Z,98061.88
2022-09-28T17:43:49.011Z,98055.16
2022-09-28T17:46:28.195Z,98054.34
2022-09-28T17:49:00.208Z,98053.53
2022-09-28T17:51:30.187Z,98042.72
2022-09-28T17:54:00.994Z,98052.72
2022-09-28T17:56:32.272Z,98044.38
2022-09-28T17:59:01.576Z,98052.78
2022-09-28T18:01:33.870Z,98048.59
2022-09-28T18:04:02.592Z,98059.50
2022-09-28T18:06:31.899Z,98051.97
2022-09-28T18:09:01.792Z,98047.75
2022-09-28T18:11:29.761Z,98048.56
2022-09-28T18:13:57.573Z,98054.41
2022-09-28T18:16:27.756Z,98057.75
2022-09-28T18:18:55.906Z,98054.41
2022-09-28T18:21:23.713Z,98053.53
2022-09-28T18:23:51.742Z,98051.03
2022-09-28T18:26:20.951Z,98044.38
2022-09-28T18:28:48.850Z,98051.06
2022-09-28T18:31:19.036Z,98045.19
2022-09-28T18:36:35.793Z,98048.56
2022-09-28T18:39:04.110Z,98051.06
2022-09-28T18:41:33.400Z,98047.69
2022-09-28T18:44:01.625Z,98047.69
2022-09-28T18:46:30.500Z,98056.91
2022-09-28T18:48:58.448Z,98051.06
2022-09-28T18:51:26.420Z,98056.94
2022-09-28T18:53:54.295Z,98061.13
2022-09-28T18:56:22.259Z,98062.00
2022-09-28T18:58:52.580Z,98061.22
2022-09-28T19:01:30.780Z,98041.22
2022-09-28T19:04:00.913Z,98048.03
2022-09-28T19:06:29.733Z,98067.22
2022-09-28T19:08:58.400Z,98069.72
2022-09-28T19:11:26.756Z,98064.69
2022-09-28T19:13:56.719Z,98060.50
2022-09-28T19:16:27.284Z,98056.22
2022-09-28T19:18:57.221Z,98060.31
2022-09-28T19:21:25.433Z,98056.91
2022-09-28T19:23:55.190Z,98058.56
2022-09-28T19:26:25.189Z,98062.75
2022-09-28T19:28:53.057Z,98064.47
2022-09-28T19:31:22.885Z,98061.97
2022-09-28T19:33:50.751Z,98062.78
2022-09-28T19:36:21.171Z,98039.53
2022-09-28T19:38:48.981Z,98063.69
2022-09-28T19:41:43.057Z,98063.72
2022-09-28T19:44:15.695Z,98066.34
2022-09-28T19:46:45.269Z,98069.72
2022-09-28T19:49:14.943Z,98049.69
2022-09-28T19:52:08.467Z,98059.81
2022-09-28T19:54:36.350Z,98055.63
2022-09-28T19:57:07.672Z,98049.78
2022-09-28T19:59:36.468Z,98054.84
2022-09-28T20:02:06.329Z,98049.78
2022-09-28T20:04:34.524Z,98051.50
2022-09-28T20:07:02.344Z,98051.50
2022-09-28T20:09:30.235Z,98056.53
2022-09-28T20:11:58.027Z,98063.22
2022-09-28T20:14:27.562Z,98063.22
2022-09-28T20:16:59.770Z,98057.38
2022-09-28T20:19:28.909Z,98063.28
2022-09-28T20:21:59.428Z,98057.44
2022-09-28T20:24:28.751Z,98059.97
2022-09-28T20:26:56.764Z,98054.97
2022-09-28T20:29:24.882Z,98063.34
2022-09-28T20:31:52.740Z,98064.19
2022-09-28T20:34:20.569Z,98065.03
2022-09-28T20:36:49.830Z,98063.31
2022-09-28T20:39:17.743Z,98059.97
2022-09-28T20:41:47.194Z,98058.25
2022-09-28T20:44:15.118Z,98060.78
2022-09-28T20:46:44.268Z,98045.00
2022-09-28T20:49:12.575Z,98061.66
2022-09-28T20:51:40.327Z,98061.66
2022-09-28T20:54:09.703Z,98060.00
2022-09-28T20:56:38.808Z,98063.38
2022-09-28T20:59:09.125Z,98076.75
2022-09-28T21:01:37.368Z,98070.09
2022-09-28T21:04:07.423Z,98068.38
2022-09-28T21:06:37.706Z,98075.03
2022-09-28T21:09:06.815Z,98080.03
2022-09-28T21:11:36.403Z,98069.16
2022-09-28T21:14:06.218Z,98074.16
2022-09-28T21:16:35.800Z,98079.13
2022-09-28T21:19:04.651Z,98077.47
2022-09-28T21:21:32.753Z,98087.53
2022-09-28T21:24:00.586Z,98076.63
2022-09-28T21:26:31.181Z,98084.16
2022-09-28T21:29:01.583Z,98081.63
2022-09-28T21:31:32.420Z,98097.53
2022-09-28T21:34:00.782Z,98084.16
2022-09-28T21:36:28.556Z,98077.47
2022-09-28T21:38:56.375Z,98088.38
2022-09-28T21:41:24.466Z,98086.72
2022-09-28T21:43:52.435Z,98095.13
2022-09-28T21:46:21.678Z,98099.31
2022-09-28T21:48:53.373Z,98093.44
2022-09-28T21:51:21.601Z,98078.44
2022-09-28T21:53:49.759Z,98089.31
2022-09-28T21:56:17.650Z,98096.03
2022-09-28T21:58:45.438Z,98091.00
2022-09-28T22:01:17.959Z,98095.19
2022-09-28T22:03:48.859Z,98100.25
2022-09-28T22:06:18.278Z,98101.09
2022-09-28T22:08:46.484Z,98103.66
2022-09-28T22:11:16.290Z,98092.78
2022-09-28T22:13:46.293Z,98096.16
2022-09-28T22:16:15.955Z,98091.16
2022-09-28T22:18:44.468Z,98097.94
2022-09-28T22:21:15.365Z,98101.28
2022-09-28T22:23:43.587Z,98097.09
2022-09-28T22:26:12.868Z,98101.25
2022-09-28T22:28:45.632Z,98098.75
2022-09-28T22:31:14.514Z,98112.13
2022-09-28T22:33:42.434Z,98110.44
2022-09-28T22:36:10.321Z,98107.06
2022-09-28T22:38:40.148Z,98110.41
2022-09-28T22:41:08.102Z,98113.72
2022-09-28T22:43:36.092Z,98102.00
2022-09-28T22:46:05.743Z,98111.19
2022-09-28T22:48:34.678Z,98104.50
2022-09-28T22:51:03.708Z,98112.06
2022-09-28T22:53:31.565Z,98106.22
2022-09-28T22:56:01.533Z,98109.63
2022-09-28T22:58:29.368Z,98112.16
2022-09-28T23:00:57.812Z,98104.63
2022-09-28T23:03:25.688Z,98110.47
2022-09-28T23:05:54.206Z,98104.63
2022-09-28T23:08:23.304Z,98105.44
2022-09-28T23:10:51.588Z,98105.47
2022-09-28T23:13:20.868Z,98101.41
2022-09-28T23:15:56.788Z,98109.66
2022-09-28T23:18:26.062Z,98115.47
2022-09-28T23:20:54.722Z,98099.69
2022-09-28T23:23:23.037Z,98121.28
2022-09-28T23:25:51.087Z,98123.84
2022-09-28T23:28:21.863Z,98121.47
2022-09-28T23:30:50.338Z,98129.91
2022-09-28T23:33:19.978Z,98126.59
2022-09-28T23:35:48.052Z,98125.75
2022-09-28T23:38:18.632Z,98129.06
2022-09-28T23:40:47.091Z,98144.09
2022-09-28T23:43:15.672Z,98138.22
2022-09-28T23:45:45.519Z,98139.13
2022-09-28T23:48:14.822Z,98145.03
2022-09-28T23:50:42.992Z,98153.38
2022-09-28T23:53:10.885Z,98152.53
2022-09-28T23:55:38.834Z,98155.84
2022-09-28T23:58:06.664Z,98154.13
